Time;durP1;ratioP1;P1;durP2;ratioP2;P2;SDS_P1;SDS_P2;PMS_P1;PMS_P2;Temp;Humidity;BMP_temperature;BMP_pressure;BME280_temperature;BME280_humidity;BME280_pressure;Samples;Min_cycle;Max_cycle;Signal;HPM_P1;HPM_P2
2021/03/28 00:01:23;;;;;;;13.38;5.80;;;;;;;6.06;73.76;101192.43;1750560;79;25733;-77
2021/03/28 00:04:00;;;;;;;10.85;6.22;;;;;;;6.07;73.97;101199.27;1743586;80;25784;-77
2021/03/28 00:06:31;;;;;;;11.88;6.28;;;;;;;6.06;73.91;101204.93;1732821;80;26601;-77
2021/03/28 00:09:29;;;;;;;18.37;6.55;;;;;;;6.02;74.04;101201.38;1690550;82;25975;-77
2021/03/28 00:12:09;;;;;;;11.15;7.53;;;;;;;5.96;74.20;101215.16;1686210;81;25861;-76
2021/03/28 00:14:50;;;;;;;14.23;6.97;;;;;;;5.91;74.11;101217.23;1737007;80;25750;-77
2021/03/28 00:17:30;;;;;;;11.35;7.28;;;;;;;5.87;74.16;101210.63;1736367;80;25740;-77
2021/03/28 00:20:20;;;;;;;13.08;7.10;;;;;;;5.85;74.46;101213.80;1736776;80;26551;-77
2021/03/28 00:22:51;;;;;;;14.60;7.70;;;;;;;5.83;74.38;101220.86;1736687;80;30916;-77
2021/03/28 00:25:43;;;;;;;14.53;7.40;;;;;;;5.84;74.33;101213.89;1718222;80;26056;-77
2021/03/28 00:28:36;;;;;;;13.15;7.17;;;;;;;5.81;74.54;101212.83;1736412;80;25351;-77
2021/03/28 00:31:27;;;;;;;11.95;6.62;;;;;;;5.74;74.44;101214.58;1748247;80;25767;-77
2021/03/28 00:34:01;;;;;;;17.65;8.60;;;;;;;5.67;74.85;101215.95;1745096;80;25774;-77
2021/03/28 00:36:42;;;;;;;15.88;9.08;;;;;;;5.61;75.04;101214.30;1720935;80;25962;-76
2021/03/28 00:39:14;;;;;;;14.35;8.33;;;;;;;5.60;74.92;101210.06;1783983;80;25887;-77
2021/03/28 00:41:48;;;;;;;19.32;11.00;;;;;;;5.61;75.17;101214.30;1742846;79;25806;-77
2021/03/28 00:44:20;;;;;;;14.53;7.47;;;;;;;5.62;74.98;101212.05;1737969;80;25820;-77
2021/03/28 00:46:58;;;;;;;17.75;9.33;;;;;;;5.62;75.46;101210.31;1733276;81;25883;-77
2021/03/28 00:49:40;;;;;;;18.37;7.83;;;;;;;5.58;74.98;101206.27;1742333;81;25968;-76
2021/03/28 00:52:18;;;;;;;13.60;7.33;;;;;;;5.54;75.06;101199.19;1740493;81;25988;-77
2021/03/28 00:54:52;;;;;;;12.45;7.47;;;;;;;5.50;75.14;101200.81;1717132;81;26479;-77
2021/03/28 00:57:39;;;;;;;15.10;7.85;;;;;;;5.46;75.21;101209.77;1688443;83;25846;-77
2021/03/28 01:00:40;;;;;;;12.60;8.13;;;;;;;5.43;75.22;101210.81;1704914;83;25989;-77
2021/03/28 01:03:12;;;;;;;13.70;7.10;;;;;;;5.40;75.13;101214.92;1706940;83;25798;-77
2021/03/28 01:05:48;;;;;;;14.83;7.35;;;;;;;5.36;75.28;101211.36;1707454;83;25940;-73
2021/03/28 01:08:40;;;;;;;13.25;6.97;;;;;;;5.33;75.18;101208.52;1711828;81;25701;-73
2021/03/28 01:11:43;;;;;;;11.30;6.83;;;;;;;5.32;75.23;101207.70;1653153;86;26102;-73
2021/03/28 01:14:20;;;;;;;12.15;6.62;;;;;;;5.27;75.23;101207.19;1658132;84;25913;-73
2021/03/28 01:17:15;;;;;;;13.43;7.25;;;;;;;5.22;75.08;101209.75;1669422;84;25789;-77
2021/03/28 01:20:01;;;;;;;15.03;7.62;;;;;;;5.20;74.98;101213.73;1676794;84;26384;-77
2021/03/28 01:22:41;;;;;;;15.30;9.03;;;;;;;5.19;74.95;101213.86;1718522;82;25783;-77
2021/03/28 01:25:19;;;;;;;11.48;7.00;;;;;;;5.12;74.96;101212.98;1717133;82;25857;-76
2021/03/28 01:28:09;;;;;;;14.23;6.50;;;;;;;5.08;75.02;101216.73;1711573;82;25763;-75
2021/03/28 01:30:43;;;;;;;10.38;6.72;;;;;;;5.03;75.06;101214.94;1709193;82;25957;-77
2021/03/28 01:33:45;;;;;;;9.93;5.78;;;;;;;5.00;75.32;101219.52;1719624;82;26183;-77
2021/03/28 01:36:37;;;;;;;10.53;6.47;;;;;;;4.95;75.53;101228.89;1632505;86;25885;-77
2021/03/28 01:39:14;;;;;;;12.20;6.65;;;;;;;4.92;75.70;101224.41;1513715;93;25982;-77
2021/03/28 01:41:46;;;;;;;10.80;6.78;;;;;;;4.92;75.70;101221.81;1514314;93;26532;-77
2021/03/28 01:44:17;;;;;;;12.68;7.22;;;;;;;4.92;75.59;101226.52;1512931;93;25883;-77
2021/03/28 01:47:10;;;;;;;14.33;7.67;;;;;;;4.91;75.72;101235.23;1519203;88;25970;-77
2021/03/28 01:50:21;;;;;;;11.45;8.10;;;;;;;4.92;75.70;101235.59;1590473;88;25772;-76
2021/03/28 01:53:23;;;;;;;13.55;7.85;;;;;;;4.97;75.65;101241.75;1588582;88;25933;-76
2021/03/28 01:56:10;;;;;;;11.97;7.12;;;;;;;5.00;75.69;101240.23;1564872;90;26265;-77
2021/03/28 01:59:08;;;;;;;11.90;7.30;;;;;;;5.02;75.52;101242.23;1500380;94;26406;-77
2021/03/28 02:01:57;;;;;;;16.70;8.43;;;;;;;5.04;75.40;101245.55;1502294;92;25887;-75
2021/03/28 02:04:35;;;;;;;13.25;9.58;;;;;;;5.02;75.53;101253.89;1499724;94;25786;-76
2021/03/28 02:07:22;;;;;;;11.22;8.50;;;;;;;5.00;75.43;101253.19;1501736;93;25941;-76
2021/03/28 02:10:12;;;;;;;12.93;8.03;;;;;;;4.96;75.39;101262.92;1512661;91;25715;-75
2021/03/28 02:13:00;;;;;;;11.83;5.80;;;;;;;4.94;75.21;101257.48;1565283;90;25968;-76
2021/03/28 02:15:37;;;;;;;11.48;6.12;;;;;;;4.94;75.14;101249.71;1579811;88;26717;-76
2021/03/28 02:18:42;;;;;;;9.65;6.15;;;;;;;4.90;75.16;101262.05;1582355;89;25923;-76
2021/03/28 02:21:43;;;;;;;12.60;6.15;;;;;;;4.86;74.95;101258.03;1564643;90;25864;-77
2021/03/28 02:24:29;;;;;;;13.43;8.15;;;;;;;4.81;74.90;101261.41;1611282;87;25852;-77
2021/03/28 02:27:19;;;;;;;11.85;8.33;;;;;;;4.73;74.92;101259.80;1622639;85;26483;-76
2021/03/28 02:29:53;;;;;;;15.43;9.80;;;;;;;4.71;74.88;101257.31;1649983;84;25981;-77
2021/03/28 02:32:59;;;;;;;15.70;11.35;;;;;;;4.65;74.74;101252.09;1635938;86;25774;-77
2021/03/28 02:35:56;;;;;;;13.10;9.08;;;;;;;4.63;74.68;101260.41;1659819;82;25675;-77
2021/03/28 02:38:36;;;;;;;12.90;9.53;;;;;;;4.58;74.68;101261.66;1663541;84;27272;-76
2021/03/28 02:41:26;;;;;;;14.40;8.70;;;;;;;4.54;74.73;101259.75;1700021;81;25871;-77
2021/03/28 02:44:16;;;;;;;13.28;9.60;;;;;;;4.52;74.89;101264.67;1707295;81;26587;-77
2021/03/28 02:46:54;;;;;;;14.33;7.83;;;;;;;4.49;74.93;101272.17;1695413;83;33491;-77
2021/03/28 02:49:58;;;;;;;11.20;5.97;;;;;;;4.48;74.80;101271.83;1710758;81;25824;-77
2021/03/28 02:53:08;;;;;;;13.40;5.92;;;;;;;4.45;75.15;101278.03;1697314;83;25890;-77
2021/03/28 02:56:16;;;;;;;14.25;5.92;;;;;;;4.42;75.07;101282.59;1693961;83;25891;-72
2021/03/28 02:59:08;;;;;;;13.83;6.15;;;;;;;4.41;75.00;101288.69;1667937;84;25843;-72
2021/03/28 03:02:06;;;;;;;11.38;5.45;;;;;;;4.36;75.16;101290.27;1670278;84;25815;-72
2021/03/28 03:04:52;;;;;;;10.75;5.85;;;;;;;4.33;75.30;101293.53;1657424;84;25878;-73
2021/03/28 03:07:46;;;;;;;10.30;5.08;;;;;;;4.29;75.39;101301.16;1689208;83;26450;-72
2021/03/28 03:10:40;;;;;;;10.45;5.87;;;;;;;4.27;75.28;101304.30;1678582;82;25995;-72
2021/03/28 03:13:46;;;;;;;15.38;5.95;;;;;;;4.23;75.50;101310.98;1653793;85;25868;-73
2021/03/28 03:16:46;;;;;;;13.80;6.47;;;;;;;4.18;75.48;101307.03;1652555;84;25853;-73
2021/03/28 03:19:49;;;;;;;;;;;;;;;4.12;75.77;101303.53;1656012;85;25462;-73
2021/03/28 03:22:44;;;;;;;12.28;6.67;;;;;;;4.07;75.90;101306.91;1655371;85;25658;-73
2021/03/28 03:25:50;;;;;;;9.10;5.35;;;;;;;3.99;75.94;101304.34;1653473;85;26003;-77
2021/03/28 03:28:54;;;;;;;15.38;6.97;;;;;;;3.98;75.88;101297.95;1629872;85;26658;-77
2021/03/28 03:31:28;;;;;;;12.73;6.47;;;;;;;3.95;75.81;101302.04;1653672;85;25674;-77
2021/03/28 03:34:22;;;;;;;13.18;7.20;;;;;;;3.94;75.90;101315.91;1652568;85;26070;-77
2021/03/28 03:37:25;;;;;;;13.53;6.50;;;;;;;3.92;75.89;101321.17;1650279;85;26629;-77
2021/03/28 03:40:18;;;;;;;13.62;7.15;;;;;;;3.85;76.37;101326.39;1705857;82;25723;-76
2021/03/28 03:43:08;;;;;;;11.30;6.58;;;;;;;3.84;76.03;101328.58;1697764;83;26753;-76
2021/03/28 03:46:17;;;;;;;14.13;7.00;;;;;;;3.84;76.13;101335.05;1699813;83;26675;-75
2021/03/28 03:49:11;;;;;;;12.80;7.00;;;;;;;3.81;76.18;101341.71;1720334;81;25739;-77
2021/03/28 03:52:06;;;;;;;12.47;6.72;;;;;;;3.78;76.04;101339.33;1730242;81;25743;-77
2021/03/28 03:55:06;;;;;;;12.37;6.47;;;;;;;3.78;76.18;101339.33;1755235;80;25534;-77
2021/03/28 03:57:47;;;;;;;12.95;6.67;;;;;;;3.77;76.48;101343.67;1759872;80;25728;-76
2021/03/28 04:00:29;;;;;;;16.77;7.25;;;;;;;3.70;76.90;101346.27;1727447;80;25793;-76
2021/03/28 04:03:30;;;;;;;13.22;7.87;;;;;;;3.64;77.18;101351.83;1756033;80;25335;-76
2021/03/28 04:06:20;;;;;;;13.88;7.03;;;;;;;3.60;77.07;101362.44;1755203;80;25988;-77
2021/03/28 04:09:14;;;;;;;12.37;7.20;;;;;;;3.62;76.81;101360.13;1755824;80;26659;-77
2021/03/28 04:11:52;;;;;;;13.53;6.92;;;;;;;3.60;77.22;101374.93;1746080;80;25736;-77
2021/03/28 04:14:33;;;;;;;15.68;6.85;;;;;;;3.58;77.33;101381.94;1713032;81;25848;-76
2021/03/28 04:17:26;;;;;;;10.90;6.33;;;;;;;3.58;77.70;101387.11;1725312;81;26543;-76
2021/03/28 04:20:26;;;;;;;12.80;7.33;;;;;;;3.56;77.39;101387.19;1718161;81;26688;-77
2021/03/28 04:23:10;;;;;;;15.90;7.00;;;;;;;3.52;77.58;101384.44;1740380;80;25998;-77
2021/03/28 04:29:18;;;;;;;14.70;8.45;;;;;;;3.52;77.95;101396.54;1636665;85;25785;-76
2021/03/28 04:32:04;;;;;;;17.70;9.33;;;;;;;3.56;77.74;101403.16;1570693;88;25961;-76
2021/03/28 04:34:50;;;;;;;12.35;8.33;;;;;;;3.59;77.67;101404.27;1532715;92;25780;-76
2021/03/28 04:38:13;;;;;;;12.07;8.23;;;;;;;3.62;77.63;101406.66;1569227;90;25967;-76
2021/03/28 04:41:09;;;;;;;14.38;8.53;;;;;;;3.65;77.61;101407.76;1543324;91;26114;-77
2021/03/28 04:44:09;;;;;;;15.38;8.50;;;;;;;3.67;77.69;101413.67;1540213;91;25921;-77
2021/03/28 04:47:04;;;;;;;13.40;10.03;;;;;;;3.67;77.40;101415.44;1539857;91;26230;-77
2021/03/28 04:50:00;;;;;;;14.65;10.80;;;;;;;3.68;77.34;101416.65;1540346;90;25903;-77
2021/03/28 04:52:56;;;;;;;15.20;9.43;;;;;;;3.70;77.50;101416.06;1540991;92;25831;-76
2021/03/28 04:55:44;;;;;;;12.47;8.73;;;;;;;3.70;77.28;101413.95;1540107;92;25866;-77
2021/03/28 04:58:31;;;;;;;14.15;8.58;;;;;;;3.69;77.32;101415.71;1534953;91;25984;-77
2021/03/28 05:01:31;;;;;;;15.40;9.65;;;;;;;3.70;77.19;101416.06;1534940;92;26755;-77
2021/03/28 05:04:22;;;;;;;16.32;9.05;;;;;;;3.72;77.23;101416.81;1519538;93;25902;-76
2021/03/28 05:07:40;;;;;;;16.25;10.98;;;;;;;3.75;77.25;101417.09;1555316;90;25966;-76
2021/03/28 05:10:43;;;;;;;15.43;11.03;;;;;;;3.75;77.23;101420.50;1657453;84;25644;-76
2021/03/28 05:13:42;;;;;;;16.05;10.40;;;;;;;3.76;77.15;101420.88;1653951;84;26258;-76
2021/03/28 05:16:51;;;;;;;16.67;11.73;;;;;;;3.83;77.22;101416.62;1632115;86;25725;-76
2021/03/28 05:19:59;;;;;;;18.98;11.78;;;;;;;3.81;77.36;101428.80;1634690;86;25845;-77
2021/03/28 05:22:50;;;;;;;14.38;9.95;;;;;;;3.80;77.18;101436.20;1633311;86;25747;-76
2021/03/28 05:25:42;;;;;;;18.02;9.83;;;;;;;3.78;77.28;101435.81;1633871;86;25811;-77
2021/03/28 05:28:49;;;;;;;13.08;8.78;;;;;;;3.81;77.30;101438.68;1633691;86;25786;-77
2021/03/28 05:31:32;;;;;;;14.10;7.83;;;;;;;3.82;77.26;101443.37;1634648;86;26524;-77
2021/03/28 05:34:26;;;;;;;15.48;8.10;;;;;;;3.83;77.26;101451.53;1633996;85;25916;-77
2021/03/28 05:37:30;;;;;;;14.25;7.70;;;;;;;3.85;77.18;101454.39;1632159;86;25911;-77
2021/03/28 05:40:49;;;;;;;10.95;7.30;;;;;;;3.89;77.12;101455.02;1635129;86;25764;-77
2021/03/28 05:43:52;;;;;;;15.88;8.48;;;;;;;4.00;77.18;101461.65;1633334;86;25791;-77
2021/03/28 05:46:27;;;;;;;13.28;6.85;;;;;;;4.08;77.04;101463.30;1635647;85;26668;-77
2021/03/28 05:49:10;;;;;;;11.10;6.40;;;;;;;4.12;76.85;101467.37;1612659;85;26447;-77
2021/03/28 05:51:54;;;;;;;10.85;6.67;;;;;;;4.14;76.87;101463.38;1634738;85;26206;-77
2021/03/28 05:55:02;;;;;;;11.05;6.62;;;;;;;4.14;76.82;101469.38;1608170;85;26313;-77
2021/03/28 05:57:49;;;;;;;12.53;6.97;;;;;;;4.13;76.72;101470.78;1607606;86;26470;-77
2021/03/28 06:00:30;;;;;;;11.35;6.60;;;;;;;4.15;76.78;101469.77;1608783;86;25804;-77
2021/03/28 06:03:01;;;;;;;12.80;6.47;;;;;;;4.17;76.73;101478.27;1607395;87;26393;-77
2021/03/28 06:06:23;;;;;;;13.65;7.53;;;;;;;4.17;76.65;101479.56;1607659;86;25974;-77
2021/03/28 06:09:12;;;;;;;13.13;7.45;;;;;;;4.21;76.63;101485.36;1608635;86;26309;-77
2021/03/28 06:12:10;;;;;;;14.33;7.45;;;;;;;4.19;76.72;101485.91;1609002;86;26354;-76
2021/03/28 06:14:46;;;;;;;12.68;6.85;;;;;;;4.21;76.58;101500.42;1609619;86;26036;-77
2021/03/28 06:17:33;;;;;;;18.87;10.18;;;;;;;4.21;76.48;101491.36;1657559;84;26591;-76
2021/03/28 06:20:28;;;;;;;13.45;7.05;;;;;;;4.19;76.54;101491.09;1658406;84;25794;-76
2021/03/28 06:23:39;;;;;;;17.80;9.00;;;;;;;4.19;76.46;101497.09;1634764;86;25866;-76
2021/03/28 06:26:43;;;;;;;19.23;11.15;;;;;;;4.18;76.49;101501.08;1634679;86;25766;-76
2021/03/28 06:29:50;;;;;;;14.50;9.18;;;;;;;4.17;76.63;101504.14;1636681;86;25792;-77
2021/03/28 06:33:01;;;;;;;15.75;10.00;;;;;;;4.15;76.71;101505.98;1673780;83;26091;-76
2021/03/28 06:36:09;;;;;;;11.90;7.90;;;;;;;4.15;76.77;101516.80;1685711;83;25697;-77
2021/03/28 06:39:16;;;;;;;13.22;8.95;;;;;;;4.15;77.16;101519.39;1687185;83;25669;-78
2021/03/28 06:42:18;;;;;;;15.00;8.38;;;;;;;4.13;77.20;101517.35;1684116;83;25816;-76
2021/03/28 06:45:16;;;;;;;14.98;10.72;;;;;;;4.09;77.33;101524.48;1608096;86;25820;-76
2021/03/28 06:48:05;;;;;;;14.33;9.58;;;;;;;4.10;77.60;101531.77;1608671;85;26607;-76
2021/03/28 06:50:53;;;;;;;14.70;10.13;;;;;;;4.11;77.68;101514.02;1608572;85;25891;-76
2021/03/28 06:53:59;;;;;;;13.62;9.10;;;;;;;4.17;77.95;101518.37;1608639;87;25872;-76
2021/03/28 06:57:01;;;;;;;14.23;8.45;;;;;;;4.30;78.15;101528.77;1561286;89;25905;-76
2021/03/28 07:00:14;;;;;;;14.73;9.50;;;;;;;4.37;77.91;101530.06;1584306;88;25824;-77
2021/03/28 07:03:07;;;;;;;14.15;8.60;;;;;;;4.39;77.95;101526.92;1582755;89;26656;-76
2021/03/28 07:05:48;;;;;;;12.65;8.75;;;;;;;4.42;77.88;101528.48;1583320;89;26758;-76
2021/03/28 07:08:49;;;;;;;15.58;8.43;;;;;;;4.44;77.89;101536.50;1583797;89;25766;-76
2021/03/28 07:11:29;;;;;;;13.93;8.40;;;;;;;4.46;77.76;101536.41;1582071;89;25895;-76
2021/03/28 07:14:35;;;;;;;14.50;8.18;;;;;;;4.48;77.65;101533.27;1527199;92;26409;-76
2021/03/28 07:17:15;;;;;;;13.50;7.42;;;;;;;4.51;77.64;101540.02;1654732;85;26575;-76
2021/03/28 07:20:20;;;;;;;13.98;7.67;;;;;;;4.52;77.67;101548.97;1669775;83;25915;-76
2021/03/28 07:23:30;;;;;;;15.15;8.35;;;;;;;4.54;77.23;101539.82;1669660;83;25713;-75
2021/03/28 07:26:34;;;;;;;13.13;8.05;;;;;;;4.57;77.32;101546.92;1674136;83;25783;-76
2021/03/28 07:29:14;;;;;;;10.68;7.28;;;;;;;4.63;77.31;101557.35;1636711;85;25762;-76
2021/03/28 07:32:24;;;;;;;10.90;7.05;;;;;;;4.67;77.32;101550.59;1635200;85;25917;-76
2021/03/28 07:35:26;;;;;;;12.53;8.73;;;;;;;4.71;77.18;101551.22;1657460;84;33204;-76
2021/03/28 07:38:29;;;;;;;12.93;7.33;;;;;;;4.81;77.11;101548.89;1657641;84;25937;-76
2021/03/28 07:41:44;;;;;;;11.75;8.23;;;;;;;4.90;76.63;101550.88;1654286;84;26379;-76
2021/03/28 07:44:54;;;;;;;12.45;8.28;;;;;;;4.99;76.58;101559.37;1625597;86;25747;-77
2021/03/28 07:47:48;;;;;;;13.05;8.10;;;;;;;5.04;75.57;101561.64;1624748;87;26401;-76
2021/03/28 07:50:52;;;;;;;12.25;8.18;;;;;;;5.05;75.21;101567.21;1620634;87;26607;-76
2021/03/28 07:53:49;;;;;;;14.68;8.55;;;;;;;4.98;75.26;101578.89;1559340;90;25529;-76
2021/03/28 07:56:26;;;;;;;14.25;9.83;;;;;;;4.95;75.47;101580.39;1572259;89;25884;-76
2021/03/28 07:59:17;;;;;;;18.15;8.58;;;;;;;4.94;75.38;101577.41;1575796;90;25634;-76
2021/03/28 08:02:04;;;;;;;13.35;8.63;;;;;;;4.95;74.99;101597.23;1571188;89;27238;-76
2021/03/28 08:05:02;;;;;;;15.58;9.90;;;;;;;4.90;75.09;101586.67;1573690;90;25848;-76
2021/03/28 08:07:46;;;;;;;15.50;9.40;;;;;;;4.95;75.31;101587.69;1574592;90;25965;-77
2021/03/28 08:10:59;;;;;;;13.00;7.47;;;;;;;5.01;75.11;101584.70;1575896;90;25730;-77
2021/03/28 08:14:05;;;;;;;12.28;7.97;;;;;;;5.05;74.70;101579.70;1578047;90;25947;-77
2021/03/28 08:17:18;;;;;;;14.18;8.48;;;;;;;5.05;74.35;101590.53;1574535;90;26601;-77
2021/03/28 08:20:25;;;;;;;12.60;8.53;;;;;;;5.03;74.45;101582.84;1576193;90;25970;-77
2021/03/28 08:23:21;;;;;;;13.35;9.50;;;;;;;5.00;74.46;101599.89;1616067;87;25614;-75
2021/03/28 08:26:41;;;;;;;13.15;8.00;;;;;;;5.00;74.36;101601.18;1616302;86;25985;-76
2021/03/28 08:29:33;;;;;;;14.45;8.20;;;;;;;5.00;74.03;101594.70;1619726;86;26013;-78
2021/03/28 08:32:49;;;;;;;12.98;8.18;;;;;;;5.09;73.93;101594.58;1614200;87;25908;-78
2021/03/28 08:35:56;;;;;;;13.53;8.03;;;;;;;5.14;73.56;101600.77;1620300;86;26518;-77
2021/03/28 08:38:47;;;;;;;10.98;6.80;;;;;;;5.11;73.32;101601.79;1620498;87;25802;-77
2021/03/28 08:41:43;;;;;;;15.78;8.80;;;;;;;5.08;73.32;101606.70;1622113;86;25867;-77
2021/03/28 08:44:35;;;;;;;;;;;;;;;5.14;73.53;101604.66;1622131;87;25817;-77
2021/03/28 08:47:22;;;;;;;13.55;8.00;;;;;;;5.20;73.56;101610.73;1615940;87;26410;-77
2021/03/28 08:50:17;;;;;;;9.95;6.53;;;;;;;5.24;73.44;101611.73;1635146;85;26417;-78
2021/03/28 08:53:14;;;;;;;12.73;7.08;;;;;;;5.25;73.09;101612.09;1629251;85;25860;-77
2021/03/28 08:56:16;;;;;;;11.33;7.42;;;;;;;5.27;73.25;101609.41;1630684;86;25831;-78
2021/03/28 08:59:09;;;;;;;13.38;8.63;;;;;;;5.32;73.41;101606.88;1543955;90;25969;-77
2021/03/28 09:01:53;;;;;;;14.07;8.93;;;;;;;5.40;73.28;101614.61;1537776;90;26555;-77
2021/03/28 09:04:48;;;;;;;13.80;8.48;;;;;;;5.48;73.67;101612.34;1538663;89;26014;-77
2021/03/28 09:07:31;;;;;;;23.57;11.22;;;;;;;5.56;73.48;101610.93;1545602;90;25822;-77
2021/03/28 09:10:24;;;;;;;14.63;9.00;;;;;;;5.58;73.10;101616.47;1530355;90;25818;-77
2021/03/28 09:13:35;;;;;;;15.40;9.35;;;;;;;5.58;73.34;101622.48;1594661;88;25499;-77
2021/03/28 09:16:34;;;;;;;14.65;8.60;;;;;;;5.63;73.47;101611.81;1602236;87;26684;-78
2021/03/28 09:19:57;;;;;;;14.93;8.23;;;;;;;5.73;73.24;101616.28;1604376;88;25446;-78
2021/03/28 09:22:52;;;;;;;13.00;8.25;;;;;;;5.81;73.12;101629.19;1599287;88;25830;-78
2021/03/28 09:25:42;;;;;;;14.93;8.93;;;;;;;5.84;72.61;101609.08;1597370;88;25927;-78
2021/03/28 09:28:45;;;;;;;12.60;8.28;;;;;;;5.88;72.81;101621.38;1605277;88;25926;-78
2021/03/28 09:31:43;;;;;;;11.65;7.47;;;;;;;5.89;72.55;101617.39;1602026;88;26258;-78
2021/03/28 09:35:03;;;;;;;12.63;8.38;;;;;;;5.92;72.60;101623.67;1676196;84;25768;-73
2021/03/28 09:38:01;;;;;;;15.93;7.67;;;;;;;5.92;72.78;101627.56;1685849;84;26013;-73
2021/03/28 09:40:50;;;;;;;15.23;8.85;;;;;;;5.96;72.60;101630.80;1647552;86;25905;-73
2021/03/28 09:43:51;;;;;;;11.65;8.05;;;;;;;5.92;72.35;101630.16;1630103;86;25896;-73
2021/03/28 09:46:54;;;;;;;15.70;8.65;;;;;;;5.87;72.58;101637.41;1644284;86;25757;-72
2021/03/28 09:49:51;;;;;;;15.23;8.63;;;;;;;5.91;72.64;101629.77;1651981;85;25943;-71
2021/03/28 09:52:38;;;;;;;15.95;10.03;;;;;;;6.00;72.75;101625.75;1652930;85;25678;-72
2021/03/28 09:55:37;;;;;;;14.33;7.72;;;;;;;6.06;72.89;101630.55;1654603;85;25805;-72
2021/03/28 09:58:37;;;;;;;19.07;8.83;;;;;;;6.14;72.61;101634.75;1600982;88;25877;-72
2021/03/28 10:01:46;;;;;;;12.73;7.65;;;;;;;6.21;72.78;101629.95;1585435;89;26059;-73
2021/03/28 10:04:27;;;;;;;14.93;8.00;;;;;;;6.31;72.20;101625.80;1391185;97;26063;-72
2021/03/28 10:07:02;;;;;;;12.82;6.87;;;;;;;6.41;71.82;101628.12;1371965;101;47372;-72
2021/03/28 10:10:02;;;;;;;15.40;7.45;;;;;;;6.50;69.72;101627.95;1405503;100;25963;-72
2021/03/28 10:12:54;;;;;;;13.05;7.45;;;;;;;6.51;69.30;101635.27;1441711;97;25542;-74
2021/03/28 10:15:23;;;;;;;15.93;7.58;;;;;;;6.61;70.18;101633.70;1355628;103;26153;-71
2021/03/28 10:18:14;;;;;;;12.37;7.50;;;;;;;6.66;69.98;101630.31;1364530;102;26049;-76
2021/03/28 10:21:07;;;;;;;15.23;7.25;;;;;;;6.71;69.66;101638.61;1393856;101;25945;-77
2021/03/28 10:23:42;;;;;;;14.55;7.58;;;;;;;6.73;69.64;101625.50;1395472;100;25839;-77
2021/03/28 10:26:52;;;;;;;13.00;7.72;;;;;;;6.77;69.33;101622.58;1386972;101;25433;-77
2021/03/28 10:29:42;;;;;;;13.62;7.33;;;;;;;6.87;69.56;101627.94;1393301;100;26130;-77
2021/03/28 10:32:50;;;;;;;16.02;6.58;;;;;;;6.95;69.46;101633.42;1411237;98;25933;-77
2021/03/28 10:35:27;;;;;;;11.23;6.77;;;;;;;6.91;68.43;101637.66;1410344;98;25727;-71
2021/03/28 10:38:32;;;;;;;15.80;7.17;;;;;;;6.86;67.57;101631.48;1431038;98;25982;-72
2021/03/28 10:41:18;;;;;;;10.70;6.10;;;;;;;6.93;67.95;101636.62;1491334;92;26669;-77
2021/03/28 10:44:25;;;;;;;11.80;5.85;;;;;;;6.99;66.35;101640.55;1521602;90;26815;-77
2021/03/28 10:47:37;;;;;;;10.50;6.05;;;;;;;7.01;66.12;101636.05;1524872;92;26004;-73
2021/03/28 10:50:12;;;;;;;9.15;6.22;;;;;;;7.07;65.38;101641.65;1528975;90;25748;-73
2021/03/28 10:53:11;;;;;;;13.30;6.35;;;;;;;7.14;65.87;101629.50;1625560;85;26317;-73
2021/03/28 10:56:21;;;;;;;13.95;7.35;;;;;;;7.23;66.68;101632.72;1578614;88;25849;-72
2021/03/28 10:59:24;;;;;;;13.98;6.55;;;;;;;7.38;66.15;101619.91;1602184;88;25942;-73
2021/03/28 11:02:31;;;;;;;13.95;6.72;;;;;;;7.58;65.22;101618.42;1603885;86;25758;-73
2021/03/28 11:05:25;;;;;;;11.22;6.67;;;;;;;7.55;64.56;101628.58;1610986;86;25363;-73
2021/03/28 11:08:28;;;;;;;10.43;5.60;;;;;;;7.56;64.88;101629.44;1605556;87;26059;-73
2021/03/28 11:11:36;;;;;;;14.25;6.22;;;;;;;7.73;65.28;101628.99;1614659;86;26513;-77
2021/03/28 11:14:39;;;;;;;10.35;6.70;;;;;;;7.88;64.51;101623.09;1592415;89;26909;-77
2021/03/28 11:17:35;;;;;;;11.93;6.03;;;;;;;7.91;63.20;101638.95;1583545;88;25858;-78
2021/03/28 11:20:45;;;;;;;10.98;5.78;;;;;;;7.94;63.58;101629.16;1582753;88;25832;-78
2021/03/28 11:23:45;;;;;;;17.15;8.28;;;;;;;8.03;62.85;101645.03;1528727;90;26035;-77
2021/03/28 11:26:47;;;;;;;11.48;6.00;;;;;;;8.05;63.03;101631.39;1529027;91;26130;-78
2021/03/28 11:29:52;;;;;;;11.73;6.30;;;;;;;7.99;63.49;101646.56;1552574;90;26641;-78
2021/03/28 11:32:43;;;;;;;16.00;6.67;;;;;;;7.96;62.78;101645.47;1559526;88;25709;-78
2021/03/28 11:35:26;;;;;;;12.53;6.62;;;;;;;7.96;63.49;101631.62;1570365;86;25865;-78
2021/03/28 11:38:15;;;;;;;12.30;5.35;;;;;;;8.06;63.79;101631.30;1571855;88;25698;-78
2021/03/28 11:40:47;;;;;;;9.70;5.55;;;;;;;8.24;62.75;101638.19;1550664;90;25849;-79
2021/03/28 11:43:33;;;;;;;8.48;4.42;;;;;;;8.39;62.63;101634.41;1547689;89;27392;-78
2021/03/28 11:46:34;;;;;;;9.05;5.58;;;;;;;8.48;61.60;101624.21;1484179;92;25830;-78
2021/03/28 11:49:13;;;;;;;14.20;5.72;;;;;;;8.49;60.27;101628.02;1501897;93;25751;-78
2021/03/28 11:51:54;;;;;;;10.50;4.72;;;;;;;8.57;60.46;101622.21;1510895;93;25901;-78
2021/03/28 11:54:24;;;;;;;8.78;4.20;;;;;;;8.64;59.94;101625.97;1505476;93;25849;-78
2021/03/28 11:57:09;;;;;;;9.60;4.50;;;;;;;8.61;58.90;101615.31;1512889;92;25916;-78
2021/03/28 11:59:44;;;;;;;9.85;5.35;;;;;;;8.55;59.77;101629.31;1527147;90;26634;-78
2021/03/28 12:02:16;;;;;;;11.15;5.45;;;;;;;8.49;60.48;101626.71;1552753;90;25962;-78
2021/03/28 12:04:53;;;;;;;15.10;6.47;;;;;;;8.52;59.89;101629.55;1564455;89;26043;-78
2021/03/28 12:07:38;;;;;;;11.88;4.92;;;;;;;8.58;61.43;101624.67;1577730;89;25987;-78
2021/03/28 12:10:12;;;;;;;9.33;4.85;;;;;;;8.75;58.67;101626.42;1557602;90;25914;-77
2021/03/28 12:13:08;;;;;;;11.68;5.72;;;;;;;8.69;57.93;101623.01;1554312;90;25867;-77
2021/03/28 12:15:52;;;;;;;11.78;5.97;;;;;;;8.56;58.38;101626.56;1529170;92;26615;-77
2021/03/28 12:18:28;;;;;;;11.90;6.28;;;;;;;8.42;58.10;101626.83;1596491;85;25709;-77
2021/03/28 12:21:14;;;;;;;13.25;6.35;;;;;;;8.35;58.67;101624.33;1635603;85;26021;-78
2021/03/28 12:23:58;;;;;;;11.38;6.30;;;;;;;8.31;58.82;101629.41;1664664;84;26392;-78
2021/03/28 12:26:40;;;;;;;11.95;5.83;;;;;;;8.52;59.49;101630.86;1669458;84;26407;-78
2021/03/28 12:29:18;;;;;;;10.70;5.70;;;;;;;8.80;59.71;101620.37;1668099;84;25751;-78
2021/03/28 12:31:52;;;;;;;12.75;5.65;;;;;;;9.04;58.58;101624.92;1666366;84;26114;-78
2021/03/28 12:34:25;;;;;;;12.10;5.58;;;;;;;9.17;56.04;101615.64;1664530;84;25770;-78
2021/03/28 12:37:12;;;;;;;11.85;4.95;;;;;;;9.44;55.84;101615.17;1672056;84;25822;-78
2021/03/28 12:39:46;;;;;;;10.80;4.92;;;;;;;9.59;55.67;101621.38;1670744;84;25635;-77
2021/03/28 12:42:41;;;;;;;9.13;3.80;;;;;;;9.73;54.22;101617.13;1667083;84;25811;-77
2021/03/28 12:45:16;;;;;;;9.15;4.80;;;;;;;9.74;53.46;101620.92;1668558;84;25692;-77
2021/03/28 12:47:51;;;;;;;11.90;4.67;;;;;;;9.66;53.81;101606.38;1667267;84;25351;-77
2021/03/28 12:50:35;;;;;;;9.55;4.00;;;;;;;9.53;51.96;101621.41;1668320;84;25812;-77
2021/03/28 12:53:15;;;;;;;11.68;4.22;;;;;;;9.40;50.57;101615.53;1637976;85;26364;-78
2021/03/28 12:55:52;;;;;;;7.08;4.17;;;;;;;9.33;52.01;101619.96;1667869;84;25820;-77
2021/03/28 12:58:42;;;;;;;10.65;4.70;;;;;;;9.31;52.20;101624.95;1666369;84;25867;-78
2021/03/28 13:01:35;;;;;;;11.65;4.40;;;;;;;9.28;53.27;101630.42;1662641;84;26626;-78
2021/03/28 13:04:21;;;;;;;9.83;4.30;;;;;;;9.29;52.90;101624.24;1657853;84;26692;-78
2021/03/28 13:06:54;;;;;;;9.45;4.15;;;;;;;9.26;52.16;101624.50;1655781;84;25802;-78
2021/03/28 13:09:36;;;;;;;10.05;3.95;;;;;;;9.27;51.86;101620.92;1652404;84;25832;-78
2021/03/28 13:12:16;;;;;;;11.57;3.90;;;;;;;9.28;52.12;101636.47;1656989;84;25778;-78
2021/03/28 13:14:49;;;;;;;8.15;3.77;;;;;;;9.25;51.16;101639.33;1656972;84;25717;-79
2021/03/28 13:17:33;;;;;;;11.65;4.33;;;;;;;9.27;51.38;101635.27;1657251;84;25753;-78
2021/03/28 13:20:24;;;;;;;9.50;4.50;;;;;;;9.40;51.33;101645.06;1655991;84;25862;-78
2021/03/28 13:22:53;;;;;;;11.40;4.60;;;;;;;9.39;51.21;101646.03;1657589;83;25877;-79
2021/03/28 13:25:30;;;;;;;10.98;4.50;;;;;;;9.29;51.63;101637.28;1652870;84;26208;-79